sensor_id;sensor_type;location;lat;lon;timestamp;P1;durP1;ratioP1;P2;durP2;ratioP2
29724;SDS011;16636;48.394;15.468;2023-03-01T00:02:07;28.35;;;12.57;;
29724;SDS011;16636;48.394;15.468;2023-03-01T00:04:33;23.42;;;11.50;;
29724;SDS011;16636;48.394;15.468;2023-03-01T00:07:01;26.58;;;12.75;;
29724;SDS011;16636;48.394;15.468;2023-03-01T00:09:27;28.00;;;13.05;;
29724;SDS011;16636;48.394;15.468;2023-03-01T00:11:53;30.05;;;12.70;;
29724;SDS011;16636;48.394;15.468;2023-03-01T00:14:19;32.13;;;15.27;;
29724;SDS011;16636;48.394;15.468;2023-03-01T00:16:45;27.85;;;12.55;;
29724;SDS011;16636;48.394;15.468;2023-03-01T00:19:12;34.55;;;15.63;;
29724;SDS011;16636;48.394;15.468;2023-03-01T00:21:40;38.83;;;15.38;;
29724;SDS011;16636;48.394;15.468;2023-03-01T00:24:07;30.65;;;13.40;;
29724;SDS011;16636;48.394;15.468;2023-03-01T00:26:33;32.08;;;13.93;;
29724;SDS011;16636;48.394;15.468;2023-03-01T00:28:59;32.15;;;13.98;;
29724;SDS011;16636;48.394;15.468;2023-03-01T00:31:27;41.47;;;14.38;;
29724;SDS011;16636;48.394;15.468;2023-03-01T00:33:57;22.98;;;12.32;;
29724;SDS011;16636;48.394;15.468;2023-03-01T00:36:26;28.65;;;13.40;;
29724;SDS011;16636;48.394;15.468;2023-03-01T00:38:56;34.67;;;13.63;;
29724;SDS011;16636;48.394;15.468;2023-03-01T00:41:23;26.73;;;13.15;;
29724;SDS011;16636;48.394;15.468;2023-03-01T00:43:52;31.58;;;14.27;;
29724;SDS011;16636;48.394;15.468;2023-03-01T00:46:20;30.77;;;13.10;;
29724;SDS011;16636;48.394;15.468;2023-03-01T00:48:48;34.22;;;13.77;;
29724;SDS011;16636;48.394;15.468;2023-03-01T00:51:19;33.92;;;13.73;;
29724;SDS011;16636;48.394;15.468;2023-03-01T00:53:51;29.73;;;13.40;;
29724;SDS011;16636;48.394;15.468;2023-03-01T00:56:22;33.15;;;13.48;;
29724;SDS011;16636;48.394;15.468;2023-03-01T00:58:48;32.95;;;14.73;;
29724;SDS011;16636;48.394;15.468;2023-03-01T01:01:15;34.53;;;14.05;;
29724;SDS011;16636;48.394;15.468;2023-03-01T01:03:47;30.58;;;14.60;;
29724;SDS011;16636;48.394;15.468;2023-03-01T01:06:28;30.50;;;13.20;;
29724;SDS011;16636;48.394;15.468;2023-03-01T01:08:57;31.33;;;14.23;;
29724;SDS011;16636;48.394;15.468;2023-03-01T01:11:24;29.33;;;14.45;;
29724;SDS011;16636;48.394;15.468;2023-03-01T01:13:52;39.80;;;14.55;;
29724;SDS011;16636;48.394;15.468;2023-03-01T01:16:19;26.60;;;13.15;;
29724;SDS011;16636;48.394;15.468;2023-03-01T01:18:46;32.30;;;14.73;;
29724;SDS011;16636;48.394;15.468;2023-03-01T01:21:14;31.45;;;14.07;;
29724;SDS011;16636;48.394;15.468;2023-03-01T01:23:42;31.90;;;13.20;;
29724;SDS011;16636;48.394;15.468;2023-03-01T01:26:13;32.72;;;14.32;;
29724;SDS011;16636;48.394;15.468;2023-03-01T01:28:44;35.80;;;13.68;;
29724;SDS011;16636;48.394;15.468;2023-03-01T01:31:11;24.45;;;12.65;;
29724;SDS011;16636;48.394;15.468;2023-03-01T01:33:37;26.73;;;12.18;;
29724;SDS011;16636;48.394;15.468;2023-03-01T01:36:04;29.45;;;13.55;;
29724;SDS011;16636;48.394;15.468;2023-03-01T01:38:32;27.98;;;12.63;;
29724;SDS011;16636;48.394;15.468;2023-03-01T01:40:58;32.03;;;13.40;;
29724;SDS011;16636;48.394;15.468;2023-03-01T01:43:26;30.48;;;14.40;;
29724;SDS011;16636;48.394;15.468;2023-03-01T01:45:58;32.95;;;15.60;;
29724;SDS011;16636;48.394;15.468;2023-03-01T01:48:37;33.03;;;14.93;;
29724;SDS011;16636;48.394;15.468;2023-03-01T01:51:11;27.73;;;13.25;;
29724;SDS011;16636;48.394;15.468;2023-03-01T01:53:40;33.55;;;15.18;;
29724;SDS011;16636;48.394;15.468;2023-03-01T01:56:09;37.20;;;15.18;;
29724;SDS011;16636;48.394;15.468;2023-03-01T01:58:38;31.50;;;15.43;;
29724;SDS011;16636;48.394;15.468;2023-03-01T02:01:05;33.95;;;14.30;;
29724;SDS011;16636;48.394;15.468;2023-03-01T02:03:32;30.95;;;12.98;;
29724;SDS011;16636;48.394;15.468;2023-03-01T02:08:42;32.28;;;14.35;;
29724;SDS011;16636;48.394;15.468;2023-03-01T02:11:11;35.70;;;14.65;;
29724;SDS011;16636;48.394;15.468;2023-03-01T02:13:40;33.40;;;14.02;;
29724;SDS011;16636;48.394;15.468;2023-03-01T02:16:11;34.22;;;15.27;;
29724;SDS011;16636;48.394;15.468;2023-03-01T02:18:40;31.50;;;14.77;;
29724;SDS011;16636;48.394;15.468;2023-03-01T02:24:21;35.35;;;13.82;;
29724;SDS011;16636;48.394;15.468;2023-03-01T02:27:03;37.08;;;16.55;;
29724;SDS011;16636;48.394;15.468;2023-03-01T02:29:29;33.03;;;14.85;;
29724;SDS011;16636;48.394;15.468;2023-03-01T02:31:56;37.08;;;16.30;;
29724;SDS011;16636;48.394;15.468;2023-03-01T02:34:25;33.85;;;14.20;;
29724;SDS011;16636;48.394;15.468;2023-03-01T02:39:45;32.67;;;14.70;;
29724;SDS011;16636;48.394;15.468;2023-03-01T02:42:14;36.25;;;15.73;;
29724;SDS011;16636;48.394;15.468;2023-03-01T02:44:48;34.75;;;15.50;;
29724;SDS011;16636;48.394;15.468;2023-03-01T02:47:15;36.15;;;15.00;;
29724;SDS011;16636;48.394;15.468;2023-03-01T02:49:41;33.67;;;15.63;;
29724;SDS011;16636;48.394;15.468;2023-03-01T02:52:22;41.15;;;16.77;;
29724;SDS011;16636;48.394;15.468;2023-03-01T02:57:31;37.47;;;15.18;;
29724;SDS011;16636;48.394;15.468;2023-03-01T02:59:59;38.97;;;16.58;;
29724;SDS011;16636;48.394;15.468;2023-03-01T03:05:24;31.67;;;13.10;;
29724;SDS011;16636;48.394;15.468;2023-03-01T03:07:56;31.23;;;14.67;;
29724;SDS011;16636;48.394;15.468;2023-03-01T03:10:29;32.55;;;15.13;;
29724;SDS011;16636;48.394;15.468;2023-03-01T03:13:01;39.83;;;14.85;;
29724;SDS011;16636;48.394;15.468;2023-03-01T03:15:32;36.08;;;14.65;;
29724;SDS011;16636;48.394;15.468;2023-03-01T03:18:02;30.83;;;15.55;;
29724;SDS011;16636;48.394;15.468;2023-03-01T03:20:31;36.10;;;15.70;;
29724;SDS011;16636;48.394;15.468;2023-03-01T03:22:58;33.45;;;15.77;;
29724;SDS011;16636;48.394;15.468;2023-03-01T03:25:25;38.45;;;15.68;;
29724;SDS011;16636;48.394;15.468;2023-03-01T03:27:53;32.95;;;14.02;;
29724;SDS011;16636;48.394;15.468;2023-03-01T03:30:24;32.53;;;14.50;;
29724;SDS011;16636;48.394;15.468;2023-03-01T03:32:52;39.58;;;15.65;;
29724;SDS011;16636;48.394;15.468;2023-03-01T03:35:22;34.28;;;14.98;;
29724;SDS011;16636;48.394;15.468;2023-03-01T03:37:56;37.40;;;15.68;;
29724;SDS011;16636;48.394;15.468;2023-03-01T03:40:41;36.95;;;16.98;;
29724;SDS011;16636;48.394;15.468;2023-03-01T03:43:10;40.33;;;16.25;;
29724;SDS011;16636;48.394;15.468;2023-03-01T03:45:41;34.92;;;16.60;;
29724;SDS011;16636;48.394;15.468;2023-03-01T03:48:09;38.42;;;15.70;;
29724;SDS011;16636;48.394;15.468;2023-03-01T03:50:36;41.60;;;17.25;;
29724;SDS011;16636;48.394;15.468;2023-03-01T03:53:04;46.05;;;16.42;;
29724;SDS011;16636;48.394;15.468;2023-03-01T03:55:35;35.65;;;16.17;;
29724;SDS011;16636;48.394;15.468;2023-03-01T03:58:05;42.70;;;17.30;;
29724;SDS011;16636;48.394;15.468;2023-03-01T04:00:43;34.80;;;15.73;;
29724;SDS011;16636;48.394;15.468;2023-03-01T04:03:10;49.22;;;18.00;;
29724;SDS011;16636;48.394;15.468;2023-03-01T04:05:38;40.22;;;16.65;;
29724;SDS011;16636;48.394;15.468;2023-03-01T04:08:04;31.60;;;14.95;;
29724;SDS011;16636;48.394;15.468;2023-03-01T04:10:37;36.60;;;15.55;;
29724;SDS011;16636;48.394;15.468;2023-03-01T04:13:05;47.95;;;19.27;;
29724;SDS011;16636;48.394;15.468;2023-03-01T04:15:33;38.75;;;16.95;;
29724;SDS011;16636;48.394;15.468;2023-03-01T04:17:59;37.95;;;17.30;;
29724;SDS011;16636;48.394;15.468;2023-03-01T04:20:27;39.13;;;17.58;;
29724;SDS011;16636;48.394;15.468;2023-03-01T04:23:05;35.30;;;15.88;;
29724;SDS011;16636;48.394;15.468;2023-03-01T04:25:42;40.88;;;16.60;;
29724;SDS011;16636;48.394;15.468;2023-03-01T04:28:22;42.13;;;16.42;;
29724;SDS011;16636;48.394;15.468;2023-03-01T04:30:52;42.88;;;18.63;;
29724;SDS011;16636;48.394;15.468;2023-03-01T04:33:19;44.05;;;18.15;;
29724;SDS011;16636;48.394;15.468;2023-03-01T04:35:45;38.78;;;17.35;;
29724;SDS011;16636;48.394;15.468;2023-03-01T04:38:14;39.03;;;16.70;;
29724;SDS011;16636;48.394;15.468;2023-03-01T04:40:41;43.95;;;17.70;;
29724;SDS011;16636;48.394;15.468;2023-03-01T04:43:09;35.83;;;17.77;;
29724;SDS011;16636;48.394;15.468;2023-03-01T04:45:35;43.33;;;16.60;;
29724;SDS011;16636;48.394;15.468;2023-03-01T04:48:02;36.05;;;17.55;;
29724;SDS011;16636;48.394;15.468;2023-03-01T04:50:29;37.10;;;16.67;;
29724;SDS011;16636;48.394;15.468;2023-03-01T04:52:55;40.25;;;18.90;;
29724;SDS011;16636;48.394;15.468;2023-03-01T04:55:26;42.13;;;18.95;;
29724;SDS011;16636;48.394;15.468;2023-03-01T04:57:53;47.25;;;20.05;;
29724;SDS011;16636;48.394;15.468;2023-03-01T05:00:20;40.58;;;17.88;;
29724;SDS011;16636;48.394;15.468;2023-03-01T05:05:14;41.95;;;18.63;;
29724;SDS011;16636;48.394;15.468;2023-03-01T05:07:40;42.25;;;18.08;;
29724;SDS011;16636;48.394;15.468;2023-03-01T05:10:07;44.92;;;19.40;;
29724;SDS011;16636;48.394;15.468;2023-03-01T05:12:33;47.90;;;18.95;;
29724;SDS011;16636;48.394;15.468;2023-03-01T05:14:59;37.45;;;17.20;;
29724;SDS011;16636;48.394;15.468;2023-03-01T05:17:25;40.38;;;17.15;;
29724;SDS011;16636;48.394;15.468;2023-03-01T05:19:51;42.88;;;18.52;;
29724;SDS011;16636;48.394;15.468;2023-03-01T05:22:17;41.97;;;17.52;;
29724;SDS011;16636;48.394;15.468;2023-03-01T05:24:44;41.97;;;18.25;;
29724;SDS011;16636;48.394;15.468;2023-03-01T05:27:12;42.95;;;17.88;;
29724;SDS011;16636;48.394;15.468;2023-03-01T05:29:38;47.22;;;17.70;;
29724;SDS011;16636;48.394;15.468;2023-03-01T05:32:04;40.78;;;17.67;;
29724;SDS011;16636;48.394;15.468;2023-03-01T05:34:34;50.53;;;18.23;;
29724;SDS011;16636;48.394;15.468;2023-03-01T05:37:01;51.85;;;18.25;;
29724;SDS011;16636;48.394;15.468;2023-03-01T05:39:28;38.17;;;17.05;;
29724;SDS011;16636;48.394;15.468;2023-03-01T05:41:55;48.45;;;17.98;;
29724;SDS011;16636;48.394;15.468;2023-03-01T05:44:23;47.53;;;17.40;;
29724;SDS011;16636;48.394;15.468;2023-03-01T05:46:49;46.85;;;16.83;;
29724;SDS011;16636;48.394;15.468;2023-03-01T05:49:15;37.67;;;17.17;;
29724;SDS011;16636;48.394;15.468;2023-03-01T05:51:42;40.33;;;16.77;;
29724;SDS011;16636;48.394;15.468;2023-03-01T05:54:12;46.30;;;18.55;;
29724;SDS011;16636;48.394;15.468;2023-03-01T05:56:38;39.35;;;15.27;;
29724;SDS011;16636;48.394;15.468;2023-03-01T05:59:04;32.90;;;16.42;;
29724;SDS011;16636;48.394;15.468;2023-03-01T06:01:31;34.75;;;16.30;;
29724;SDS011;16636;48.394;15.468;2023-03-01T06:03:57;41.28;;;17.08;;
29724;SDS011;16636;48.394;15.468;2023-03-01T06:06:24;37.08;;;16.00;;
29724;SDS011;16636;48.394;15.468;2023-03-01T06:08:51;35.67;;;15.20;;
29724;SDS011;16636;48.394;15.468;2023-03-01T06:11:17;37.58;;;14.93;;
29724;SDS011;16636;48.394;15.468;2023-03-01T06:13:44;39.28;;;16.30;;
29724;SDS011;16636;48.394;15.468;2023-03-01T06:16:11;32.90;;;15.50;;
29724;SDS011;16636;48.394;15.468;2023-03-01T06:18:37;45.53;;;16.92;;
29724;SDS011;16636;48.394;15.468;2023-03-01T06:21:04;40.40;;;16.80;;
29724;SDS011;16636;48.394;15.468;2023-03-01T06:23:31;41.25;;;17.15;;
29724;SDS011;16636;48.394;15.468;2023-03-01T06:25:57;41.10;;;15.98;;
29724;SDS011;16636;48.394;15.468;2023-03-01T06:28:24;36.80;;;16.08;;
29724;SDS011;16636;48.394;15.468;2023-03-01T06:30:50;39.25;;;16.17;;
29724;SDS011;16636;48.394;15.468;2023-03-01T06:33:17;43.28;;;18.08;;
29724;SDS011;16636;48.394;15.468;2023-03-01T06:35:48;46.58;;;19.65;;
29724;SDS011;16636;48.394;15.468;2023-03-01T06:38:14;34.67;;;17.80;;
29724;SDS011;16636;48.394;15.468;2023-03-01T06:40:40;44.00;;;19.50;;
29724;SDS011;16636;48.394;15.468;2023-03-01T06:43:06;41.97;;;17.88;;
29724;SDS011;16636;48.394;15.468;2023-03-01T06:45:32;43.38;;;18.17;;
29724;SDS011;16636;48.394;15.468;2023-03-01T06:48:05;43.58;;;16.45;;
29724;SDS011;16636;48.394;15.468;2023-03-01T06:50:33;40.78;;;17.25;;
29724;SDS011;16636;48.394;15.468;2023-03-01T06:53:00;38.25;;;16.15;;
29724;SDS011;16636;48.394;15.468;2023-03-01T06:55:26;49.13;;;20.05;;
29724;SDS011;16636;48.394;15.468;2023-03-01T06:57:55;43.30;;;16.35;;
29724;SDS011;16636;48.394;15.468;2023-03-01T07:00:22;47.67;;;17.80;;
29724;SDS011;16636;48.394;15.468;2023-03-01T07:02:49;39.72;;;18.60;;
29724;SDS011;16636;48.394;15.468;2023-03-01T07:05:15;45.35;;;18.80;;
29724;SDS011;16636;48.394;15.468;2023-03-01T07:07:41;42.30;;;17.15;;
29724;SDS011;16636;48.394;15.468;2023-03-01T07:10:07;59.47;;;18.95;;
29724;SDS011;16636;48.394;15.468;2023-03-01T07:12:33;63.92;;;20.30;;
29724;SDS011;16636;48.394;15.468;2023-03-01T07:14:59;53.97;;;20.33;;
29724;SDS011;16636;48.394;15.468;2023-03-01T07:17:25;55.75;;;22.00;;
29724;SDS011;16636;48.394;15.468;2023-03-01T07:19:51;90.28;;;38.50;;
29724;SDS011;16636;48.394;15.468;2023-03-01T07:22:17;108.50;;;41.10;;
29724;SDS011;16636;48.394;15.468;2023-03-01T07:24:43;66.63;;;30.42;;
29724;SDS011;16636;48.394;15.468;2023-03-01T07:27:09;49.97;;;24.88;;
29724;SDS011;16636;48.394;15.468;2023-03-01T07:29:36;63.90;;;35.03;;
29724;SDS011;16636;48.394;15.468;2023-03-01T07:32:03;60.42;;;26.77;;
29724;SDS011;16636;48.394;15.468;2023-03-01T07:34:30;51.90;;;22.23;;
29724;SDS011;16636;48.394;15.468;2023-03-01T07:36:56;45.65;;;20.67;;
29724;SDS011;16636;48.394;15.468;2023-03-01T07:39:22;67.18;;;25.42;;
29724;SDS011;16636;48.394;15.468;2023-03-01T07:44:16;54.45;;;21.05;;
29724;SDS011;16636;48.394;15.468;2023-03-01T07:46:43;57.17;;;21.48;;
29724;SDS011;16636;48.394;15.468;2023-03-01T07:49:09;75.00;;;31.45;;
29724;SDS011;16636;48.394;15.468;2023-03-01T07:51:35;56.63;;;23.70;;
29724;SDS011;16636;48.394;15.468;2023-03-01T07:54:02;65.10;;;25.33;;
29724;SDS011;16636;48.394;15.468;2023-03-01T07:56:28;54.47;;;22.35;;
29724;SDS011;16636;48.394;15.468;2023-03-01T07:58:54;49.35;;;24.30;;
29724;SDS011;16636;48.394;15.468;2023-03-01T08:01:20;53.65;;;23.23;;
29724;SDS011;16636;48.394;15.468;2023-03-01T08:03:47;52.15;;;24.15;;
29724;SDS011;16636;48.394;15.468;2023-03-01T08:06:14;57.88;;;22.73;;
29724;SDS011;16636;48.394;15.468;2023-03-01T08:08:41;49.25;;;21.90;;
29724;SDS011;16636;48.394;15.468;2023-03-01T08:11:09;55.13;;;22.08;;
29724;SDS011;16636;48.394;15.468;2023-03-01T08:13:36;55.45;;;21.77;;
29724;SDS011;16636;48.394;15.468;2023-03-01T08:16:12;51.75;;;20.63;;
29724;SDS011;16636;48.394;15.468;2023-03-01T08:18:40;55.50;;;22.88;;
29724;SDS011;16636;48.394;15.468;2023-03-01T08:21:08;65.10;;;30.25;;
29724;SDS011;16636;48.394;15.468;2023-03-01T08:23:36;55.75;;;23.85;;
29724;SDS011;16636;48.394;15.468;2023-03-01T08:26:03;48.80;;;21.95;;
29724;SDS011;16636;48.394;15.468;2023-03-01T08:28:39;56.58;;;22.73;;
29724;SDS011;16636;48.394;15.468;2023-03-01T08:31:13;48.60;;;22.08;;
29724;SDS011;16636;48.394;15.468;2023-03-01T08:33:43;47.20;;;19.65;;
29724;SDS011;16636;48.394;15.468;2023-03-01T08:36:16;47.00;;;19.50;;
29724;SDS011;16636;48.394;15.468;2023-03-01T08:38:42;41.90;;;17.15;;
29724;SDS011;16636;48.394;15.468;2023-03-01T08:41:09;54.10;;;19.95;;
29724;SDS011;16636;48.394;15.468;2023-03-01T08:43:35;42.67;;;19.25;;
29724;SDS011;16636;48.394;15.468;2023-03-01T08:46:01;37.17;;;17.48;;
29724;SDS011;16636;48.394;15.468;2023-03-01T08:51:35;41.72;;;16.98;;
29724;SDS011;16636;48.394;15.468;2023-03-01T08:54:04;43.83;;;17.25;;
29724;SDS011;16636;48.394;15.468;2023-03-01T08:56:37;40.67;;;16.58;;
29724;SDS011;16636;48.394;15.468;2023-03-01T08:59:03;47.22;;;17.73;;
29724;SDS011;16636;48.394;15.468;2023-03-01T09:01:30;40.53;;;17.55;;
29724;SDS011;16636;48.394;15.468;2023-03-01T09:03:56;43.45;;;18.23;;
29724;SDS011;16636;48.394;15.468;2023-03-01T09:06:22;41.90;;;17.15;;
29724;SDS011;16636;48.394;15.468;2023-03-01T09:08:48;38.00;;;16.63;;
29724;SDS011;16636;48.394;15.468;2023-03-01T09:11:19;37.53;;;16.40;;
29724;SDS011;16636;48.394;15.468;2023-03-01T09:13:46;35.95;;;15.90;;
29724;SDS011;16636;48.394;15.468;2023-03-01T09:16:15;34.75;;;16.08;;
29724;SDS011;16636;48.394;15.468;2023-03-01T09:18:43;40.65;;;17.42;;
29724;SDS011;16636;48.394;15.468;2023-03-01T09:21:10;36.33;;;16.17;;
29724;SDS011;16636;48.394;15.468;2023-03-01T09:23:40;35.80;;;16.38;;
29724;SDS011;16636;48.394;15.468;2023-03-01T09:26:09;39.42;;;18.58;;
29724;SDS011;16636;48.394;15.468;2023-03-01T09:28:46;34.85;;;14.73;;
29724;SDS011;16636;48.394;15.468;2023-03-01T09:31:14;43.05;;;16.50;;
29724;SDS011;16636;48.394;15.468;2023-03-01T09:33:41;41.88;;;18.98;;
29724;SDS011;16636;48.394;15.468;2023-03-01T09:36:17;37.80;;;16.52;;
29724;SDS011;16636;48.394;15.468;2023-03-01T09:38:46;37.45;;;17.30;;
29724;SDS011;16636;48.394;15.468;2023-03-01T09:41:20;43.50;;;17.50;;
29724;SDS011;16636;48.394;15.468;2023-03-01T09:43:55;39.13;;;16.83;;
29724;SDS011;16636;48.394;15.468;2023-03-01T09:46:29;33.97;;;14.88;;
29724;SDS011;16636;48.394;15.468;2023-03-01T09:49:05;43.78;;;18.27;;
29724;SDS011;16636;48.394;15.468;2023-03-01T09:51:57;36.75;;;14.43;;
29724;SDS011;16636;48.394;15.468;2023-03-01T09:54:30;34.53;;;16.95;;
29724;SDS011;16636;48.394;15.468;2023-03-01T09:57:03;35.30;;;15.70;;
29724;SDS011;16636;48.394;15.468;2023-03-01T10:04:48;37.53;;;16.25;;
29724;SDS011;16636;48.394;15.468;2023-03-01T10:10:32;36.90;;;17.60;;
29724;SDS011;16636;48.394;15.468;2023-03-01T10:15:48;40.20;;;18.20;;
29724;SDS011;16636;48.394;15.468;2023-03-01T10:18:21;36.22;;;16.63;;
29724;SDS011;16636;48.394;15.468;2023-03-01T10:21:26;49.05;;;18.20;;
29724;SDS011;16636;48.394;15.468;2023-03-01T10:23:46;43.78;;;17.88;;
29724;SDS011;16636;48.394;15.468;2023-03-01T10:29:05;41.80;;;15.85;;
29724;SDS011;16636;48.394;15.468;2023-03-01T10:31:42;39.58;;;18.00;;
29724;SDS011;16636;48.394;15.468;2023-03-01T10:34:22;36.28;;;16.50;;
29724;SDS011;16636;48.394;15.468;2023-03-01T10:36:56;36.38;;;15.48;;
29724;SDS011;16636;48.394;15.468;2023-03-01T10:39:26;39.55;;;15.90;;
29724;SDS011;16636;48.394;15.468;2023-03-01T10:44:37;37.53;;;13.95;;
29724;SDS011;16636;48.394;15.468;2023-03-01T10:47:08;33.53;;;13.30;;
29724;SDS011;16636;48.394;15.468;2023-03-01T10:52:37;30.60;;;13.38;;
29724;SDS011;16636;48.394;15.468;2023-03-01T10:57:39;28.35;;;13.55;;
29724;SDS011;16636;48.394;15.468;2023-03-01T11:00:20;28.67;;;13.18;;
29724;SDS011;16636;48.394;15.468;2023-03-01T11:03:10;33.63;;;13.52;;
29724;SDS011;16636;48.394;15.468;2023-03-01T11:08:29;25.20;;;12.60;;
29724;SDS011;16636;48.394;15.468;2023-03-01T11:13:59;29.38;;;12.88;;
29724;SDS011;16636;48.394;15.468;2023-03-01T11:16:35;35.03;;;13.30;;
29724;SDS011;16636;48.394;15.468;2023-03-01T11:21:36;29.00;;;14.20;;
29724;SDS011;16636;48.394;15.468;2023-03-01T11:24:24;31.90;;;13.70;;
29724;SDS011;16636;48.394;15.468;2023-03-01T11:26:55;29.25;;;12.13;;
29724;SDS011;16636;48.394;15.468;2023-03-01T11:29:37;24.80;;;11.68;;
29724;SDS011;16636;48.394;15.468;2023-03-01T11:32:07;28.08;;;12.38;;
29724;SDS011;16636;48.394;15.468;2023-03-01T11:34:43;28.70;;;13.50;;
29724;SDS011;16636;48.394;15.468;2023-03-01T11:37:28;29.25;;;12.43;;
29724;SDS011;16636;48.394;15.468;2023-03-01T11:40:28;27.73;;;12.10;;
29724;SDS011;16636;48.394;15.468;2023-03-01T11:43:22;26.05;;;11.85;;
29724;SDS011;16636;48.394;15.468;2023-03-01T11:46:15;25.95;;;12.68;;
29724;SDS011;16636;48.394;15.468;2023-03-01T11:57:21;30.75;;;13.25;;
29724;SDS011;16636;48.394;15.468;2023-03-01T11:59:57;28.45;;;13.10;;
29724;SDS011;16636;48.394;15.468;2023-03-01T12:10:42;33.83;;;14.55;;
29724;SDS011;16636;48.394;15.468;2023-03-01T12:38:31;35.15;;;14.60;;
29724;SDS011;16636;48.394;15.468;2023-03-01T12:44:22;31.75;;;14.43;;
29724;SDS011;16636;48.394;15.468;2023-03-01T12:50:28;25.73;;;13.05;;
29724;SDS011;16636;48.394;15.468;2023-03-01T12:53:13;28.65;;;13.95;;
29724;SDS011;16636;48.394;15.468;2023-03-01T12:55:49;29.98;;;13.68;;
29724;SDS011;16636;48.394;15.468;2023-03-01T12:58:24;27.23;;;12.38;;
29724;SDS011;16636;48.394;15.468;2023-03-01T13:09:29;22.75;;;12.18;;
29724;SDS011;16636;48.394;15.468;2023-03-01T13:12:02;25.10;;;11.30;;
29724;SDS011;16636;48.394;15.468;2023-03-01T13:16:57;27.38;;;12.55;;
29724;SDS011;16636;48.394;15.468;2023-03-01T13:19:26;25.10;;;12.45;;
29724;SDS011;16636;48.394;15.468;2023-03-01T13:22:01;24.80;;;12.85;;
29724;SDS011;16636;48.394;15.468;2023-03-01T13:25:01;26.17;;;11.82;;
29724;SDS011;16636;48.394;15.468;2023-03-01T13:27:48;26.38;;;11.50;;
29724;SDS011;16636;48.394;15.468;2023-03-01T13:35:53;28.95;;;12.30;;
29724;SDS011;16636;48.394;15.468;2023-03-01T13:41:11;26.05;;;13.43;;
29724;SDS011;16636;48.394;15.468;2023-03-01T13:43:42;27.50;;;12.93;;
29724;SDS011;16636;48.394;15.468;2023-03-01T13:48:49;31.65;;;13.85;;
29724;SDS011;16636;48.394;15.468;2023-03-01T13:51:23;30.27;;;13.27;;
29724;SDS011;16636;48.394;15.468;2023-03-01T13:53:51;36.13;;;16.55;;
29724;SDS011;16636;48.394;15.468;2023-03-01T13:56:27;34.63;;;15.73;;
29724;SDS011;16636;48.394;15.468;2023-03-01T13:58:59;31.80;;;13.20;;
29724;SDS011;16636;48.394;15.468;2023-03-01T14:01:30;28.30;;;13.85;;
29724;SDS011;16636;48.394;15.468;2023-03-01T14:04:01;31.10;;;14.15;;
29724;SDS011;16636;48.394;15.468;2023-03-01T14:06:30;29.38;;;13.52;;
29724;SDS011;16636;48.394;15.468;2023-03-01T14:09:12;29.85;;;13.45;;
29724;SDS011;16636;48.394;15.468;2023-03-01T14:19:25;32.25;;;12.98;;
29724;SDS011;16636;48.394;15.468;2023-03-01T14:24:52;24.90;;;12.88;;
29724;SDS011;16636;48.394;15.468;2023-03-01T14:27:35;25.73;;;12.88;;
29724;SDS011;16636;48.394;15.468;2023-03-01T14:32:51;28.52;;;13.55;;
29724;SDS011;16636;48.394;15.468;2023-03-01T14:35:26;30.45;;;13.73;;
29724;SDS011;16636;48.394;15.468;2023-03-01T14:37:54;29.77;;;13.75;;
29724;SDS011;16636;48.394;15.468;2023-03-01T14:40:42;35.97;;;14.90;;
29724;SDS011;16636;48.394;15.468;2023-03-01T14:43:11;32.30;;;14.70;;
29724;SDS011;16636;48.394;15.468;2023-03-01T14:45:46;33.38;;;15.88;;
29724;SDS011;16636;48.394;15.468;2023-03-01T14:48:15;38.40;;;15.13;;
29724;SDS011;16636;48.394;15.468;2023-03-01T14:50:41;27.85;;;13.23;;
29724;SDS011;16636;48.394;15.468;2023-03-01T14:53:20;34.00;;;14.00;;
29724;SDS011;16636;48.394;15.468;2023-03-01T14:55:53;28.33;;;13.82;;
29724;SDS011;16636;48.394;15.468;2023-03-01T14:58:23;32.22;;;14.57;;
29724;SDS011;16636;48.394;15.468;2023-03-01T15:00:52;35.53;;;14.68;;
29724;SDS011;16636;48.394;15.468;2023-03-01T15:06:00;32.83;;;14.68;;
29724;SDS011;16636;48.394;15.468;2023-03-01T15:08:27;30.95;;;14.23;;
29724;SDS011;16636;48.394;15.468;2023-03-01T15:11:02;29.42;;;13.48;;
29724;SDS011;16636;48.394;15.468;2023-03-01T15:13:30;32.88;;;14.65;;
29724;SDS011;16636;48.394;15.468;2023-03-01T15:16:09;34.10;;;14.75;;
29724;SDS011;16636;48.394;15.468;2023-03-01T15:18:49;30.38;;;14.40;;
29724;SDS011;16636;48.394;15.468;2023-03-01T15:21:21;31.50;;;14.70;;
29724;SDS011;16636;48.394;15.468;2023-03-01T15:23:50;34.10;;;14.65;;
29724;SDS011;16636;48.394;15.468;2023-03-01T15:26:23;36.92;;;15.30;;
29724;SDS011;16636;48.394;15.468;2023-03-01T15:28:54;32.58;;;15.20;;
29724;SDS011;16636;48.394;15.468;2023-03-01T15:31:33;34.17;;;14.73;;
29724;SDS011;16636;48.394;15.468;2023-03-01T15:34:23;34.45;;;14.40;;
29724;SDS011;16636;48.394;15.468;2023-03-01T15:37:00;31.63;;;13.25;;
29724;SDS011;16636;48.394;15.468;2023-03-01T15:39:35;33.08;;;14.40;;
29724;SDS011;16636;48.394;15.468;2023-03-01T15:45:37;30.50;;;13.30;;
29724;SDS011;16636;48.394;15.468;2023-03-01T15:47:40;30.58;;;14.05;;
29724;SDS011;16636;48.394;15.468;2023-03-01T15:53:12;32.65;;;13.45;;
29724;SDS011;16636;48.394;15.468;2023-03-01T15:55:40;33.65;;;14.60;;
29724;SDS011;16636;48.394;15.468;2023-03-01T15:58:10;32.47;;;14.15;;
29724;SDS011;16636;48.394;15.468;2023-03-01T16:00:39;25.10;;;11.80;;
29724;SDS011;16636;48.394;15.468;2023-03-01T16:03:05;29.48;;;14.07;;
29724;SDS011;16636;48.394;15.468;2023-03-01T16:05:35;24.38;;;12.60;;
29724;SDS011;16636;48.394;15.468;2023-03-01T16:08:04;25.25;;;13.10;;
29724;SDS011;16636;48.394;15.468;2023-03-01T16:10:31;33.17;;;13.85;;
29724;SDS011;16636;48.394;15.468;2023-03-01T16:12:58;28.52;;;13.35;;
29724;SDS011;16636;48.394;15.468;2023-03-01T16:15:29;30.45;;;13.13;;
29724;SDS011;16636;48.394;15.468;2023-03-01T16:17:56;26.60;;;12.77;;
29724;SDS011;16636;48.394;15.468;2023-03-01T16:20:25;24.90;;;11.68;;
29724;SDS011;16636;48.394;15.468;2023-03-01T16:22:53;23.88;;;12.45;;
29724;SDS011;16636;48.394;15.468;2023-03-01T16:25:20;42.78;;;18.20;;
29724;SDS011;16636;48.394;15.468;2023-03-01T16:27:47;33.20;;;13.30;;
29724;SDS011;16636;48.394;15.468;2023-03-01T16:30:16;31.42;;;13.25;;
29724;SDS011;16636;48.394;15.468;2023-03-01T16:32:44;30.33;;;13.52;;
29724;SDS011;16636;48.394;15.468;2023-03-01T16:35:12;33.35;;;13.45;;
29724;SDS011;16636;48.394;15.468;2023-03-01T16:37:41;41.45;;;18.10;;
29724;SDS011;16636;48.394;15.468;2023-03-01T16:40:15;41.85;;;16.55;;
29724;SDS011;16636;48.394;15.468;2023-03-01T16:42:43;31.73;;;15.98;;
29724;SDS011;16636;48.394;15.468;2023-03-01T16:45:09;33.22;;;14.68;;
29724;SDS011;16636;48.394;15.468;2023-03-01T16:47:36;34.15;;;14.52;;
29724;SDS011;16636;48.394;15.468;2023-03-01T16:50:02;31.92;;;16.00;;
29724;SDS011;16636;48.394;15.468;2023-03-01T16:52:28;34.22;;;15.40;;